sensor_id;sensor_type;location;lat;lon;timestamp;temperature;humidity
30300;DHT22;17110;52.602;12.998;2024-02-16T00:03:41;10.10;99.90
30300;DHT22;17110;52.602;12.998;2024-02-16T00:08:41;10.00;99.90
30300;DHT22;17110;52.602;12.998;2024-02-16T00:13:42;10.00;99.90
30300;DHT22;17110;52.602;12.998;2024-02-16T00:18:44;10.00;99.90
30300;DHT22;17110;52.602;12.998;2024-02-16T00:23:45;10.00;99.90
30300;DHT22;17110;52.602;12.998;2024-02-16T00:28:46;9.90;99.90
30300;DHT22;17110;52.602;12.998;2024-02-16T00:33:48;9.90;99.90
30300;DHT22;17110;52.602;12.998;2024-02-16T00:38:49;10.00;99.90
30300;DHT22;17110;52.602;12.998;2024-02-16T00:43:50;9.90;99.90
30300;DHT22;17110;52.602;12.998;2024-02-16T00:48:53;9.80;99.90
30300;DHT22;17110;52.602;12.998;2024-02-16T00:53:54;9.90;99.90
30300;DHT22;17110;52.602;12.998;2024-02-16T00:58:55;9.80;99.90
30300;DHT22;17110;52.602;12.998;2024-02-16T01:03:57;9.80;99.90
30300;DHT22;17110;52.602;12.998;2024-02-16T01:08:57;9.80;99.90
30300;DHT22;17110;52.602;12.998;2024-02-16T01:13:58;9.80;99.90
30300;DHT22;17110;52.602;12.998;2024-02-16T01:19:00;9.70;99.90
30300;DHT22;17110;52.602;12.998;2024-02-16T01:24:01;9.70;99.90
30300;DHT22;17110;52.602;12.998;2024-02-16T01:29:02;9.70;99.90
30300;DHT22;17110;52.602;12.998;2024-02-16T01:34:04;9.80;99.90
30300;DHT22;17110;52.602;12.998;2024-02-16T01:39:04;9.80;99.90
30300;DHT22;17110;52.602;12.998;2024-02-16T01:44:05;9.80;99.90
30300;DHT22;17110;52.602;12.998;2024-02-16T01:49:07;9.90;99.90
30300;DHT22;17110;52.602;12.998;2024-02-16T01:54:09;10.00;99.90
30300;DHT22;17110;52.602;12.998;2024-02-16T01:59:09;10.00;99.90
30300;DHT22;17110;52.602;12.998;2024-02-16T02:04:11;10.00;99.90
30300;DHT22;17110;52.602;12.998;2024-02-16T02:09:12;10.00;99.90
30300;DHT22;17110;52.602;12.998;2024-02-16T02:14:13;10.00;99.90
30300;DHT22;17110;52.602;12.998;2024-02-16T02:19:15;9.90;99.90
30300;DHT22;17110;52.602;12.998;2024-02-16T02:24:17;9.90;99.90
30300;DHT22;17110;52.602;12.998;2024-02-16T02:29:18;9.90;99.90
30300;DHT22;17110;52.602;12.998;2024-02-16T02:34:19;9.90;99.90
30300;DHT22;17110;52.602;12.998;2024-02-16T02:39:21;9.90;99.90
30300;DHT22;17110;52.602;12.998;2024-02-16T02:44:21;9.90;99.90
30300;DHT22;17110;52.602;12.998;2024-02-16T02:49:22;9.80;99.90
30300;DHT22;17110;52.602;12.998;2024-02-16T02:54:24;9.80;99.90
30300;DHT22;17110;52.602;12.998;2024-02-16T02:59:25;9.70;99.90
30300;DHT22;17110;52.602;12.998;2024-02-16T03:04:26;9.70;99.90
30300;DHT22;17110;52.602;12.998;2024-02-16T03:09:28;9.70;99.90
30300;DHT22;17110;52.602;12.998;2024-02-16T03:14:28;9.60;99.90
30300;DHT22;17110;52.602;12.998;2024-02-16T03:19:29;9.60;99.90
30300;DHT22;17110;52.602;12.998;2024-02-16T03:24:31;9.60;99.90
30300;DHT22;17110;52.602;12.998;2024-02-16T03:29:32;9.60;99.90
30300;DHT22;17110;52.602;12.998;2024-02-16T03:34:32;9.60;99.90
30300;DHT22;17110;52.602;12.998;2024-02-16T03:39:35;9.60;99.90
30300;DHT22;17110;52.602;12.998;2024-02-16T03:44:35;9.60;99.90
30300;DHT22;17110;52.602;12.998;2024-02-16T03:49:37;9.60;99.90
30300;DHT22;17110;52.602;12.998;2024-02-16T03:54:39;9.60;99.90
30300;DHT22;17110;52.602;12.998;2024-02-16T03:59:40;9.60;99.90
30300;DHT22;17110;52.602;12.998;2024-02-16T04:04:40;9.60;99.90
30300;DHT22;17110;52.602;12.998;2024-02-16T04:09:42;9.60;99.90
30300;DHT22;17110;52.602;12.998;2024-02-16T04:14:43;9.60;99.90
30300;DHT22;17110;52.602;12.998;2024-02-16T04:19:44;9.70;99.90
30300;DHT22;17110;52.602;12.998;2024-02-16T04:24:46;9.80;99.90
30300;DHT22;17110;52.602;12.998;2024-02-16T04:29:47;9.80;99.90
30300;DHT22;17110;52.602;12.998;2024-02-16T04:34:47;9.80;99.90
30300;DHT22;17110;52.602;12.998;2024-02-16T04:39:49;9.80;99.90
30300;DHT22;17110;52.602;12.998;2024-02-16T04:44:50;9.80;99.90
30300;DHT22;17110;52.602;12.998;2024-02-16T04:49:51;9.80;99.90
30300;DHT22;17110;52.602;12.998;2024-02-16T04:54:53;9.70;99.90
30300;DHT22;17110;52.602;12.998;2024-02-16T04:59:53;9.80;99.90
30300;DHT22;17110;52.602;12.998;2024-02-16T05:04:54;9.70;99.90
30300;DHT22;17110;52.602;12.998;2024-02-16T05:09:56;9.70;99.90
30300;DHT22;17110;52.602;12.998;2024-02-16T05:14:57;9.70;99.90
30300;DHT22;17110;52.602;12.998;2024-02-16T05:19:58;9.60;99.90
30300;DHT22;17110;52.602;12.998;2024-02-16T05:25:00;9.60;99.90
30300;DHT22;17110;52.602;12.998;2024-02-16T05:30:00;9.60;99.90
30300;DHT22;17110;52.602;12.998;2024-02-16T05:35:01;9.70;99.90
30300;DHT22;17110;52.602;12.998;2024-02-16T05:40:07;9.70;99.90
30300;DHT22;17110;52.602;12.998;2024-02-16T05:45:09;9.70;99.90
30300;DHT22;17110;52.602;12.998;2024-02-16T05:50:09;9.70;99.90
30300;DHT22;17110;52.602;12.998;2024-02-16T05:55:12;9.80;99.90
30300;DHT22;17110;52.602;12.998;2024-02-16T06:00:13;9.80;99.90
30300;DHT22;17110;52.602;12.998;2024-02-16T06:05:14;9.70;99.90
30300;DHT22;17110;52.602;12.998;2024-02-16T06:10:16;9.70;99.90
30300;DHT22;17110;52.602;12.998;2024-02-16T06:15:17;9.60;99.90
30300;DHT22;17110;52.602;12.998;2024-02-16T06:20:18;9.60;99.90
30300;DHT22;17110;52.602;12.998;2024-02-16T06:25:20;9.50;99.90
30300;DHT22;17110;52.602;12.998;2024-02-16T06:30:21;9.50;99.90
30300;DHT22;17110;52.602;12.998;2024-02-16T06:35:21;9.60;99.90
30300;DHT22;17110;52.602;12.998;2024-02-16T06:40:24;9.60;99.90
30300;DHT22;17110;52.602;12.998;2024-02-16T06:45:24;9.60;99.90
30300;DHT22;17110;52.602;12.998;2024-02-16T06:50:25;9.50;99.90
30300;DHT22;17110;52.602;12.998;2024-02-16T06:55:27;9.50;99.90
30300;DHT22;17110;52.602;12.998;2024-02-16T07:00:28;9.60;99.90
30300;DHT22;17110;52.602;12.998;2024-02-16T07:05:28;9.60;99.90
30300;DHT22;17110;52.602;12.998;2024-02-16T07:10:30;9.60;99.90
30300;DHT22;17110;52.602;12.998;2024-02-16T07:15:31;9.70;99.90
30300;DHT22;17110;52.602;12.998;2024-02-16T07:20:32;9.80;99.90
30300;DHT22;17110;52.602;12.998;2024-02-16T07:25:34;10.00;99.90
30300;DHT22;17110;52.602;12.998;2024-02-16T07:30:35;10.00;99.90
30300;DHT22;17110;52.602;12.998;2024-02-16T07:35:36;10.20;99.90
30300;DHT22;17110;52.602;12.998;2024-02-16T07:40:38;10.30;99.90
30300;DHT22;17110;52.602;12.998;2024-02-16T07:45:39;10.40;99.90
30300;DHT22;17110;52.602;12.998;2024-02-16T07:50:40;10.50;99.90
30300;DHT22;17110;52.602;12.998;2024-02-16T07:55:42;10.60;99.90
30300;DHT22;17110;52.602;12.998;2024-02-16T08:00:42;10.70;99.90
30300;DHT22;17110;52.602;12.998;2024-02-16T08:05:43;10.90;99.90
30300;DHT22;17110;52.602;12.998;2024-02-16T08:10:45;10.90;99.90
30300;DHT22;17110;52.602;12.998;2024-02-16T08:15:46;11.20;99.90
30300;DHT22;17110;52.602;12.998;2024-02-16T08:20:47;11.10;99.90
30300;DHT22;17110;52.602;12.998;2024-02-16T08:25:49;11.10;99.90
30300;DHT22;17110;52.602;12.998;2024-02-16T08:30:50;11.10;99.90
30300;DHT22;17110;52.602;12.998;2024-02-16T08:35:51;11.20;99.90
30300;DHT22;17110;52.602;12.998;2024-02-16T08:40:53;11.40;99.90
30300;DHT22;17110;52.602;12.998;2024-02-16T08:45:53;11.80;99.90
30300;DHT22;17110;52.602;12.998;2024-02-16T08:50:54;12.00;99.90
30300;DHT22;17110;52.602;12.998;2024-02-16T08:55:56;12.30;99.90
30300;DHT22;17110;52.602;12.998;2024-02-16T09:00:57;12.60;99.90
30300;DHT22;17110;52.602;12.998;2024-02-16T09:05:58;12.80;99.90
30300;DHT22;17110;52.602;12.998;2024-02-16T09:11:00;12.80;99.90
30300;DHT22;17110;52.602;12.998;2024-02-16T09:16:02;13.00;99.90
30300;DHT22;17110;52.602;12.998;2024-02-16T09:21:04;13.00;99.90
30300;DHT22;17110;52.602;12.998;2024-02-16T09:26:06;12.90;99.90
30300;DHT22;17110;52.602;12.998;2024-02-16T09:31:06;12.90;99.90
30300;DHT22;17110;52.602;12.998;2024-02-16T09:36:07;12.80;99.90
30300;DHT22;17110;52.602;12.998;2024-02-16T09:41:09;12.90;99.90
30300;DHT22;17110;52.602;12.998;2024-02-16T09:46:10;12.90;99.90
30300;DHT22;17110;52.602;12.998;2024-02-16T09:51:11;13.00;99.90
30300;DHT22;17110;52.602;12.998;2024-02-16T09:56:13;13.10;99.90
30300;DHT22;17110;52.602;12.998;2024-02-16T10:01:17;13.10;99.90
30300;DHT22;17110;52.602;12.998;2024-02-16T10:06:18;13.10;99.90
30300;DHT22;17110;52.602;12.998;2024-02-16T10:11:22;13.20;99.90
30300;DHT22;17110;52.602;12.998;2024-02-16T10:16:23;13.30;99.90
30300;DHT22;17110;52.602;12.998;2024-02-16T10:21:24;13.30;99.90
30300;DHT22;17110;52.602;12.998;2024-02-16T10:26:27;13.30;99.90
30300;DHT22;17110;52.602;12.998;2024-02-16T10:31:28;13.30;99.90
30300;DHT22;17110;52.602;12.998;2024-02-16T10:36:30;13.40;99.90
30300;DHT22;17110;52.602;12.998;2024-02-16T10:41:35;13.60;99.90
30300;DHT22;17110;52.602;12.998;2024-02-16T10:46:36;13.80;99.90
30300;DHT22;17110;52.602;12.998;2024-02-16T10:51:38;14.00;99.90
30300;DHT22;17110;52.602;12.998;2024-02-16T10:56:41;14.20;99.90
30300;DHT22;17110;52.602;12.998;2024-02-16T11:01:43;14.30;99.90
30300;DHT22;17110;52.602;12.998;2024-02-16T11:06:47;14.30;99.90
30300;DHT22;17110;52.602;12.998;2024-02-16T11:11:52;14.20;99.90
30300;DHT22;17110;52.602;12.998;2024-02-16T11:17:07;14.20;99.90
30300;DHT22;17110;52.602;12.998;2024-02-16T11:22:08;14.10;99.90
30300;DHT22;17110;52.602;12.998;2024-02-16T11:27:10;14.10;99.90
30300;DHT22;17110;52.602;12.998;2024-02-16T11:32:12;14.30;99.90
30300;DHT22;17110;52.602;12.998;2024-02-16T11:37:13;14.40;99.90
30300;DHT22;17110;52.602;12.998;2024-02-16T11:42:19;14.20;99.90
30300;DHT22;17110;52.602;12.998;2024-02-16T11:47:22;14.20;99.90
30300;DHT22;17110;52.602;12.998;2024-02-16T11:52:23;14.30;99.90
30300;DHT22;17110;52.602;12.998;2024-02-16T11:57:24;14.30;99.90
30300;DHT22;17110;52.602;12.998;2024-02-16T12:02:26;14.50;99.90
30300;DHT22;17110;52.602;12.998;2024-02-16T12:07:27;14.70;99.90
30300;DHT22;17110;52.602;12.998;2024-02-16T12:12:28;14.60;99.90
30300;DHT22;17110;52.602;12.998;2024-02-16T12:17:30;14.60;99.90
30300;DHT22;17110;52.602;12.998;2024-02-16T12:22:31;14.90;99.90
30300;DHT22;17110;52.602;12.998;2024-02-16T12:27:32;15.30;99.90
30300;DHT22;17110;52.602;12.998;2024-02-16T12:32:34;15.60;99.90
30300;DHT22;17110;52.602;12.998;2024-02-16T12:37:35;15.60;99.90
30300;DHT22;17110;52.602;12.998;2024-02-16T12:42:35;15.60;99.90
30300;DHT22;17110;52.602;12.998;2024-02-16T12:47:37;15.80;99.90
30300;DHT22;17110;52.602;12.998;2024-02-16T12:52:38;16.10;99.90
30300;DHT22;17110;52.602;12.998;2024-02-16T12:57:39;16.40;99.90
30300;DHT22;17110;52.602;12.998;2024-02-16T13:02:41;16.80;99.90
30300;DHT22;17110;52.602;12.998;2024-02-16T13:07:42;17.00;99.90
30300;DHT22;17110;52.602;12.998;2024-02-16T13:12:42;17.00;99.90
30300;DHT22;17110;52.602;12.998;2024-02-16T13:17:44;17.00;99.90
30300;DHT22;17110;52.602;12.998;2024-02-16T13:22:45;16.90;99.90
30300;DHT22;17110;52.602;12.998;2024-02-16T13:27:46;16.70;99.90
30300;DHT22;17110;52.602;12.998;2024-02-16T13:32:48;16.60;99.90
30300;DHT22;17110;52.602;12.998;2024-02-16T13:37:50;16.30;99.90
30300;DHT22;17110;52.602;12.998;2024-02-16T13:42:50;16.10;99.90
30300;DHT22;17110;52.602;12.998;2024-02-16T13:47:52;16.00;99.90
30300;DHT22;17110;52.602;12.998;2024-02-16T13:52:53;16.10;99.90
30300;DHT22;17110;52.602;12.998;2024-02-16T13:57:54;16.00;99.90
30300;DHT22;17110;52.602;12.998;2024-02-16T14:02:56;15.90;99.90
30300;DHT22;17110;52.602;12.998;2024-02-16T14:07:57;15.90;99.90
30300;DHT22;17110;52.602;12.998;2024-02-16T14:12:57;15.90;99.90
30300;DHT22;17110;52.602;12.998;2024-02-16T14:18:00;16.00;99.90
30300;DHT22;17110;52.602;12.998;2024-02-16T14:23:01;15.80;99.90
30300;DHT22;17110;52.602;12.998;2024-02-16T14:28:01;15.90;99.90
30300;DHT22;17110;52.602;12.998;2024-02-16T14:33:04;15.90;99.90
30300;DHT22;17110;52.602;12.998;2024-02-16T14:38:04;15.80;99.90
30300;DHT22;17110;52.602;12.998;2024-02-16T14:43:05;15.80;99.90
30300;DHT22;17110;52.602;12.998;2024-02-16T14:48:07;15.70;99.90
30300;DHT22;17110;52.602;12.998;2024-02-16T14:53:08;15.60;99.90
30300;DHT22;17110;52.602;12.998;2024-02-16T14:58:09;15.60;99.90
30300;DHT22;17110;52.602;12.998;2024-02-16T15:03:11;15.50;99.90
30300;DHT22;17110;52.602;12.998;2024-02-16T15:08:12;15.50;99.90
30300;DHT22;17110;52.602;12.998;2024-02-16T15:13:12;15.40;99.90
30300;DHT22;17110;52.602;12.998;2024-02-16T15:18:14;15.40;99.90
30300;DHT22;17110;52.602;12.998;2024-02-16T15:23:15;15.40;99.90
30300;DHT22;17110;52.602;12.998;2024-02-16T15:28:16;15.30;99.90
30300;DHT22;17110;52.602;12.998;2024-02-16T15:33:18;15.30;99.90
30300;DHT22;17110;52.602;12.998;2024-02-16T15:38:19;15.20;99.90
30300;DHT22;17110;52.602;12.998;2024-02-16T15:43:19;15.10;99.90
30300;DHT22;17110;52.602;12.998;2024-02-16T15:48:21;15.00;99.90
30300;DHT22;17110;52.602;12.998;2024-02-16T15:53:22;14.90;99.90
30300;DHT22;17110;52.602;12.998;2024-02-16T15:58:23;14.80;99.90
30300;DHT22;17110;52.602;12.998;2024-02-16T16:03:25;14.60;99.90
30300;DHT22;17110;52.602;12.998;2024-02-16T16:08:26;14.40;99.90
30300;DHT22;17110;52.602;12.998;2024-02-16T16:13:26;14.40;99.90
30300;DHT22;17110;52.602;12.998;2024-02-16T16:18:28;14.20;99.90
30300;DHT22;17110;52.602;12.998;2024-02-16T16:23:30;14.10;99.90
30300;DHT22;17110;52.602;12.998;2024-02-16T16:28:30;13.90;99.90
30300;DHT22;17110;52.602;12.998;2024-02-16T16:33:32;13.70;99.90
30300;DHT22;17110;52.602;12.998;2024-02-16T16:38:33;13.50;99.90
30300;DHT22;17110;52.602;12.998;2024-02-16T16:43:34;13.40;99.90
30300;DHT22;17110;52.602;12.998;2024-02-16T16:48:36;13.20;99.90
30300;DHT22;17110;52.602;12.998;2024-02-16T16:53:37;13.20;99.90
30300;DHT22;17110;52.602;12.998;2024-02-16T16:58:38;13.20;99.90
30300;DHT22;17110;52.602;12.998;2024-02-16T17:03:40;13.10;99.90
30300;DHT22;17110;52.602;12.998;2024-02-16T17:08:40;13.10;99.90
30300;DHT22;17110;52.602;12.998;2024-02-16T17:13:41;12.90;99.90
30300;DHT22;17110;52.602;12.998;2024-02-16T17:18:43;12.80;99.90
30300;DHT22;17110;52.602;12.998;2024-02-16T17:23:44;12.80;99.90
30300;DHT22;17110;52.602;12.998;2024-02-16T17:28:45;12.80;99.90
30300;DHT22;17110;52.602;12.998;2024-02-16T17:33:47;12.80;99.90
30300;DHT22;17110;52.602;12.998;2024-02-16T17:38:47;12.70;99.90
30300;DHT22;17110;52.602;12.998;2024-02-16T17:43:48;12.80;99.90
30300;DHT22;17110;52.602;12.998;2024-02-16T17:48:50;12.70;99.90
30300;DHT22;17110;52.602;12.998;2024-02-16T17:53:51;12.80;99.90
30300;DHT22;17110;52.602;12.998;2024-02-16T17:58:52;12.80;99.90
30300;DHT22;17110;52.602;12.998;2024-02-16T18:03:54;12.80;99.90
30300;DHT22;17110;52.602;12.998;2024-02-16T18:08:55;12.90;99.90
30300;DHT22;17110;52.602;12.998;2024-02-16T18:13:55;12.90;99.90
30300;DHT22;17110;52.602;12.998;2024-02-16T18:18:57;12.90;99.90
30300;DHT22;17110;52.602;12.998;2024-02-16T18:23:58;12.90;99.90
30300;DHT22;17110;52.602;12.998;2024-02-16T18:28:59;13.00;99.90
30300;DHT22;17110;52.602;12.998;2024-02-16T18:34:01;13.00;99.90
30300;DHT22;17110;52.602;12.998;2024-02-16T18:39:02;12.90;99.90
30300;DHT22;17110;52.602;12.998;2024-02-16T18:44:03;12.90;99.90
30300;DHT22;17110;52.602;12.998;2024-02-16T18:49:05;12.90;99.90
30300;DHT22;17110;52.602;12.998;2024-02-16T18:54:06;12.90;99.90
30300;DHT22;17110;52.602;12.998;2024-02-16T18:59:07;12.80;99.90
30300;DHT22;17110;52.602;12.998;2024-02-16T19:04:09;12.90;99.90
30300;DHT22;17110;52.602;12.998;2024-02-16T19:09:10;12.90;99.90
30300;DHT22;17110;52.602;12.998;2024-02-16T19:14:10;13.00;99.90
30300;DHT22;17110;52.602;12.998;2024-02-16T19:19:12;13.00;99.90
30300;DHT22;17110;52.602;12.998;2024-02-16T19:24:13;13.00;99.90
30300;DHT22;17110;52.602;12.998;2024-02-16T19:29:14;12.90;99.90
30300;DHT22;17110;52.602;12.998;2024-02-16T19:34:16;13.00;99.90
30300;DHT22;17110;52.602;12.998;2024-02-16T19:39:17;12.90;99.90
30300;DHT22;17110;52.602;12.998;2024-02-16T19:44:17;12.80;99.90
30300;DHT22;17110;52.602;12.998;2024-02-16T19:49:19;12.80;99.90
30300;DHT22;17110;52.602;12.998;2024-02-16T19:54:20;12.80;99.90
30300;DHT22;17110;52.602;12.998;2024-02-16T19:59:21;12.70;99.90
30300;DHT22;17110;52.602;12.998;2024-02-16T20:04:24;12.70;99.90
30300;DHT22;17110;52.602;12.998;2024-02-16T20:09:24;12.60;99.90
30300;DHT22;17110;52.602;12.998;2024-02-16T20:14:25;12.60;99.90
30300;DHT22;17110;52.602;12.998;2024-02-16T20:19:27;12.50;99.90
30300;DHT22;17110;52.602;12.998;2024-02-16T20:24:28;12.60;99.90
30300;DHT22;17110;52.602;12.998;2024-02-16T20:29:29;12.60;99.90
30300;DHT22;17110;52.602;12.998;2024-02-16T20:34:31;12.60;99.90
30300;DHT22;17110;52.602;12.998;2024-02-16T20:39:32;12.60;99.90
30300;DHT22;17110;52.602;12.998;2024-02-16T20:44:32;12.60;99.90
30300;DHT22;17110;52.602;12.998;2024-02-16T20:49:34;12.60;99.90
30300;DHT22;17110;52.602;12.998;2024-02-16T20:54:35;12.60;99.90
30300;DHT22;17110;52.602;12.998;2024-02-16T20:59:36;12.50;99.90
30300;DHT22;17110;52.602;12.998;2024-02-16T21:04:38;12.50;99.90
30300;DHT22;17110;52.602;12.998;2024-02-16T21:09:39;12.60;99.90
30300;DHT22;17110;52.602;12.998;2024-02-16T21:14:39;12.50;99.90
30300;DHT22;17110;52.602;12.998;2024-02-16T21:19:42;12.50;99.90
30300;DHT22;17110;52.602;12.998;2024-02-16T21:24:42;12.50;99.90
30300;DHT22;17110;52.602;12.998;2024-02-16T21:29:43;12.40;99.90
30300;DHT22;17110;52.602;12.998;2024-02-16T21:34:45;12.40;99.90
30300;DHT22;17110;52.602;12.998;2024-02-16T21:39:46;12.40;99.90
30300;DHT22;17110;52.602;12.998;2024-02-16T21:44:46;12.50;99.90
30300;DHT22;17110;52.602;12.998;2024-02-16T21:49:49;12.40;99.90
30300;DHT22;17110;52.602;12.998;2024-02-16T21:54:49;12.40;99.90
30300;DHT22;17110;52.602;12.998;2024-02-16T21:59:50;12.40;99.90
30300;DHT22;17110;52.602;12.998;2024-02-16T22:04:52;12.40;99.90
30300;DHT22;17110;52.602;12.998;2024-02-16T22:09:53;12.30;99.90
30300;DHT22;17110;52.602;12.998;2024-02-16T22:14:54;12.40;99.90
30300;DHT22;17110;52.602;12.998;2024-02-16T22:19:56;12.40;99.90
30300;DHT22;17110;52.602;12.998;2024-02-16T22:24:56;12.40;99.90
30300;DHT22;17110;52.602;12.998;2024-02-16T22:29:57;12.40;99.90
30300;DHT22;17110;52.602;12.998;2024-02-16T22:34:59;12.40;99.90
30300;DHT22;17110;52.602;12.998;2024-02-16T22:40:00;12.40;99.90
30300;DHT22;17110;52.602;12.998;2024-02-16T22:45:01;12.40;99.90
30300;DHT22;17110;52.602;12.998;2024-02-16T22:50:03;12.30;99.90
30300;DHT22;17110;52.602;12.998;2024-02-16T22:55:05;12.10;99.90
30300;DHT22;17110;52.602;12.998;2024-02-16T23:00:07;12.10;99.90
30300;DHT22;17110;52.602;12.998;2024-02-16T23:05:09;12.10;99.90
30300;DHT22;17110;52.602;12.998;2024-02-16T23:10:11;12.00;99.90
30300;DHT22;17110;52.602;12.998;2024-02-16T23:15:12;11.90;99.90
30300;DHT22;17110;52.602;12.998;2024-02-16T23:20:15;11.80;99.90
30300;DHT22;17110;52.602;12.998;2024-02-16T23:25:16;11.70;99.90
30300;DHT22;17110;52.602;12.998;2024-02-16T23:30:18;11.70;99.90
30300;DHT22;17110;52.602;12.998;2024-02-16T23:35:20;11.70;99.90
30300;DHT22;17110;52.602;12.998;2024-02-16T23:40:21;11.70;99.90
30300;DHT22;17110;52.602;12.998;2024-02-16T23:45:22;11.70;99.90
30300;DHT22;17110;52.602;12.998;2024-02-16T23:50:24;11.60;99.90
30300;DHT22;17110;52.602;12.998;2024-02-16T23:55:25;11.70;99.90
